Time;durP1;ratioP1;P1;durP2;ratioP2;P2;SDS_P1;SDS_P2;PMS_P1;PMS_P2;Temp;Humidity;BMP_temperature;BMP_pressure;BME280_temperature;BME280_humidity;BME280_pressure;Samples;Min_cycle;Max_cycle;Signal;HPM_P1;HPM_P2
2023/12/20 00:01:35;;;;;;;2.40;2.30;;;;;;;;;;4910919;29;20074;-77
2023/12/20 00:04:02;;;;;;;2.55;2.45;;;;;;;;;;4909536;29;20064;-76
2023/12/20 00:06:28;;;;;;;2.53;2.33;;;;;;;;;;4894520;29;20052;-76
2023/12/20 00:08:54;;;;;;;2.40;2.28;;;;;;;;;;4894361;29;20040;-75
2023/12/20 00:11:21;;;;;;;2.60;2.47;;;;;;;;;;4912560;29;20118;-75
2023/12/20 00:13:47;;;;;;;2.88;2.67;;;;;;;;;;4909611;29;20169;-74
2023/12/20 00:16:13;;;;;;;2.72;2.53;;;;;;;;;;4913920;29;20043;-74
2023/12/20 00:18:39;;;;;;;2.95;2.75;;;;;;;;;;4914052;29;20745;-74
2023/12/20 00:21:05;;;;;;;2.55;2.42;;;;;;;;;;4912629;29;20047;-75
2023/12/20 00:23:32;;;;;;;1.83;1.73;;;;;;;;;;4903227;29;20047;-74
2023/12/20 00:25:59;;;;;;;1.60;1.50;;;;;;;;;;4908570;29;20048;-74
2023/12/20 00:28:25;;;;;;;2.80;2.60;;;;;;;;;;4911705;29;20043;-76
2023/12/20 00:30:51;;;;;;;2.17;2.08;;;;;;;;;;4906954;29;20186;-76
2023/12/20 00:33:17;;;;;;;2.95;2.55;;;;;;;;;;4922201;29;20524;-76
2023/12/20 00:35:43;;;;;;;1.77;1.73;;;;;;;;;;4910001;29;20042;-75
2023/12/20 00:38:09;;;;;;;3.25;3.05;;;;;;;;;;4906394;29;20047;-75
2023/12/20 00:40:35;;;;;;;2.20;2.10;;;;;;;;;;4908639;29;20120;-77
2023/12/20 00:43:01;;;;;;;2.55;2.42;;;;;;;;;;4903272;29;20126;-78
2023/12/20 00:45:27;;;;;;;2.72;2.53;;;;;;;;;;4896096;29;20039;-75
2023/12/20 00:47:53;;;;;;;1.75;1.70;;;;;;;;;;4889229;29;20043;-77
2023/12/20 00:50:19;;;;;;;2.63;2.50;;;;;;;;;;4894349;29;20071;-76
2023/12/20 00:52:44;;;;;;;2.58;2.47;;;;;;;;;;4908638;29;20132;-76
2023/12/20 00:55:10;;;;;;;2.25;2.15;;;;;;;;;;4923374;29;20096;-78
2023/12/20 00:57:36;;;;;;;2.85;2.65;;;;;;;;;;4918472;29;20051;-78
2023/12/20 01:00:02;;;;;;;2.90;2.70;;;;;;;;;;4908588;29;20031;-76
2023/12/20 01:02:30;;;;;;;4.75;3.28;;;;;;;;;;4898449;29;20099;-77
2023/12/20 01:04:56;;;;;;;3.50;3.20;;;;;;;;;;4925772;29;20160;-77
2023/12/20 01:07:22;;;;;;;3.13;2.90;;;;;;;;;;4909553;29;20139;-77
2023/12/20 01:09:48;;;;;;;2.83;2.22;;;;;;;;;;4910454;29;20053;-78
2023/12/20 01:12:14;;;;;;;3.60;3.30;;;;;;;;;;4906858;29;20534;-77
2023/12/20 01:14:39;;;;;;;3.88;3.63;;;;;;;;;;4912041;29;20059;-77
2023/12/20 01:17:05;;;;;;;3.17;2.97;;;;;;;;;;4923391;29;20095;-76
2023/12/20 01:19:31;;;;;;;3.90;3.35;;;;;;;;;;4925514;29;20039;-76
2023/12/20 01:21:57;;;;;;;3.75;3.45;;;;;;;;;;4923197;29;20032;-77
2023/12/20 01:24:23;;;;;;;5.65;5.18;;;;;;;;;;4921826;29;20075;-76
2023/12/20 01:26:49;;;;;;;11.00;6.68;;;;;;;;;;4913171;29;20024;-75
2023/12/20 01:29:15;;;;;;;7.88;6.05;;;;;;;;;;4907178;29;20051;-76
2023/12/20 01:31:41;;;;;;;6.85;4.75;;;;;;;;;;4926713;29;20120;-76
2023/12/20 01:34:07;;;;;;;5.25;4.72;;;;;;;;;;4905449;29;20147;-75
2023/12/20 01:36:33;;;;;;;4.32;3.70;;;;;;;;;;4913508;29;20503;-76
2023/12/20 01:38:59;;;;;;;13.70;5.82;;;;;;;;;;4913154;29;20044;-75
2023/12/20 01:41:24;;;;;;;5.45;4.95;;;;;;;;;;4912962;29;20035;-76
2023/12/20 01:43:50;;;;;;;4.00;3.72;;;;;;;;;;4909475;29;20507;-76
2023/12/20 01:46:16;;;;;;;3.97;3.25;;;;;;;;;;4908681;29;20028;-77
2023/12/20 01:48:42;;;;;;;4.07;3.78;;;;;;;;;;4908999;29;20166;-75
2023/12/20 01:51:08;;;;;;;4.57;4.20;;;;;;;;;;4906426;29;20554;-77
2023/12/20 01:53:34;;;;;;;3.55;3.35;;;;;;;;;;4910090;29;20040;-77
2023/12/20 01:56:00;;;;;;;3.38;3.17;;;;;;;;;;4888933;29;20033;-76
2023/12/20 01:58:26;;;;;;;3.92;3.53;;;;;;;;;;4910906;29;20036;-76
2023/12/20 02:00:52;;;;;;;4.72;3.60;;;;;;;;;;4907492;29;20589;-76
2023/12/20 02:03:18;;;;;;;3.33;2.90;;;;;;;;;;4910552;29;20134;-76
2023/12/20 02:05:44;;;;;;;2.90;2.80;;;;;;;;;;4910703;29;20131;-75
2023/12/20 02:08:10;;;;;;;5.28;2.80;;;;;;;;;;4907987;29;20427;-76
2023/12/20 02:10:35;;;;;;;5.13;2.03;;;;;;;;;;4907983;29;20028;-78
2023/12/20 02:13:01;;;;;;;1.80;1.70;;;;;;;;;;4908570;29;20040;-78
2023/12/20 02:15:27;;;;;;;1.20;1.20;;;;;;;;;;4910962;29;20032;-74
2023/12/20 02:17:54;;;;;;;1.55;1.40;;;;;;;;;;4912069;29;20123;-74
2023/12/20 02:20:39;;;;;;;1.10;1.00;;;;;;;;;;4908040;29;20052;-74
2023/12/20 02:23:05;;;;;;;1.20;1.20;;;;;;;;;;4910992;29;20052;-75
2023/12/20 02:25:31;;;;;;;0.82;0.82;;;;;;;;;;4908691;29;20028;-74
2023/12/20 02:27:57;;;;;;;0.98;0.98;;;;;;;;;;4906129;29;20131;-74
2023/12/20 02:30:23;;;;;;;0.88;0.85;;;;;;;;;;4922965;29;20024;-74
2023/12/20 02:32:49;;;;;;;2.03;1.40;;;;;;;;;;4910531;29;20046;-74
2023/12/20 02:35:15;;;;;;;1.27;1.20;;;;;;;;;;4907161;29;20462;-74
2023/12/20 02:37:41;;;;;;;1.67;1.58;;;;;;;;;;4911608;29;20082;-74
2023/12/20 02:40:07;;;;;;;1.70;1.60;;;;;;;;;;4910153;29;20113;-75
2023/12/20 02:42:33;;;;;;;2.95;2.53;;;;;;;;;;4894259;29;20126;-76
2023/12/20 02:44:59;;;;;;;3.17;2.95;;;;;;;;;;4912325;29;20076;-75
2023/12/20 02:47:25;;;;;;;6.72;4.85;;;;;;;;;;4907541;29;20037;-76
2023/12/20 02:49:52;;;;;;;4.10;3.45;;;;;;;;;;4906178;29;20478;-75
2023/12/20 02:52:18;;;;;;;3.83;3.08;;;;;;;;;;4907278;29;20039;-75
2023/12/20 02:54:44;;;;;;;3.75;2.53;;;;;;;;;;4922002;29;20084;-75
2023/12/20 02:57:10;;;;;;;2.70;2.50;;;;;;;;;;4911534;29;20410;-75
2023/12/20 02:59:36;;;;;;;1.73;1.63;;;;;;;;;;4920138;29;20032;-76
2023/12/20 03:02:01;;;;;;;2.35;1.90;;;;;;;;;;4908350;29;20043;-75
2023/12/20 03:04:27;;;;;;;2.50;2.28;;;;;;;;;;4890897;29;20035;-75
2023/12/20 03:06:53;;;;;;;3.45;2.30;;;;;;;;;;4872652;29;20052;-75
2023/12/20 03:09:19;;;;;;;3.45;2.40;;;;;;;;;;4910086;29;20040;-76
2023/12/20 03:11:45;;;;;;;2.47;2.28;;;;;;;;;;4908008;29;20067;-74
2023/12/20 03:14:11;;;;;;;3.08;2.90;;;;;;;;;;4908223;29;20204;-76
2023/12/20 03:16:37;;;;;;;3.55;3.25;;;;;;;;;;4911743;29;20043;-75
2023/12/20 03:19:03;;;;;;;3.05;2.85;;;;;;;;;;4909560;29;20123;-76
2023/12/20 03:21:29;;;;;;;3.63;3.40;;;;;;;;;;4881204;29;20041;-76
2023/12/20 03:23:55;;;;;;;4.20;3.90;;;;;;;;;;4915187;29;20052;-75
2023/12/20 03:26:22;;;;;;;5.00;4.53;;;;;;;;;;4912155;29;20040;-76
2023/12/20 03:28:48;;;;;;;3.47;3.28;;;;;;;;;;4911050;29;20054;-75
2023/12/20 03:31:14;;;;;;;5.40;4.90;;;;;;;;;;4909236;29;20032;-74
2023/12/20 03:33:40;;;;;;;4.00;3.60;;;;;;;;;;4910646;29;20056;-74
2023/12/20 03:36:06;;;;;;;4.55;4.15;;;;;;;;;;4914790;29;20036;-75
2023/12/20 03:38:32;;;;;;;4.68;4.13;;;;;;;;;;4909879;29;20039;-76
2023/12/20 03:40:58;;;;;;;6.65;4.75;;;;;;;;;;4905211;29;20499;-75
2023/12/20 03:43:24;;;;;;;4.97;4.57;;;;;;;;;;4907365;29;20055;-75
2023/12/20 03:45:50;;;;;;;5.32;4.32;;;;;;;;;;4912835;29;20039;-75
2023/12/20 03:48:16;;;;;;;4.68;4.28;;;;;;;;;;4911266;29;20047;-74
2023/12/20 03:50:41;;;;;;;6.53;4.80;;;;;;;;;;4920191;29;20046;-74
2023/12/20 03:53:07;;;;;;;5.20;4.80;;;;;;;;;;4905019;29;20148;-74
2023/12/20 03:55:33;;;;;;;5.22;4.82;;;;;;;;;;4911038;29;20123;-75
2023/12/20 03:57:59;;;;;;;4.20;3.85;;;;;;;;;;4911289;29;20040;-75
2023/12/20 04:00:25;;;;;;;4.60;4.30;;;;;;;;;;4911126;29;20030;-75
2023/12/20 04:02:51;;;;;;;4.97;4.50;;;;;;;;;;4908547;29;20079;-74
2023/12/20 04:05:16;;;;;;;3.80;3.60;;;;;;;;;;4909333;29;20083;-75
2023/12/20 04:07:43;;;;;;;6.00;4.10;;;;;;;;;;4913852;29;20051;-76
2023/12/20 04:10:09;;;;;;;5.25;4.57;;;;;;;;;;4893373;29;20060;-75
2023/12/20 04:12:35;;;;;;;3.90;3.65;;;;;;;;;;4906560;29;20094;-74
2023/12/20 04:15:01;;;;;;;4.45;4.05;;;;;;;;;;4928375;29;20032;-75
2023/12/20 04:17:29;;;;;;;5.40;5.00;;;;;;;;;;4885396;29;20092;-75
2023/12/20 04:19:55;;;;;;;5.00;4.63;;;;;;;;;;4911421;29;20043;-75
2023/12/20 04:22:21;;;;;;;5.22;4.82;;;;;;;;;;4910464;29;20514;-74
2023/12/20 04:24:47;;;;;;;4.32;4.03;;;;;;;;;;4894708;29;20153;-74
2023/12/20 04:27:13;;;;;;;5.25;4.93;;;;;;;;;;4913014;29;20414;-75
2023/12/20 04:29:39;;;;;;;5.40;5.00;;;;;;;;;;4908247;29;20036;-75
2023/12/20 04:32:05;;;;;;;4.35;4.03;;;;;;;;;;4907055;29;20475;-75
2023/12/20 04:34:31;;;;;;;5.30;4.82;;;;;;;;;;4906569;29;20123;-75
2023/12/20 04:36:56;;;;;;;4.65;3.28;;;;;;;;;;4913601;29;20036;-75
2023/12/20 04:39:22;;;;;;;4.68;4.28;;;;;;;;;;4912612;29;20051;-75
2023/12/20 04:41:49;;;;;;;3.85;3.55;;;;;;;;;;4913482;29;20043;-75
2023/12/20 04:44:15;;;;;;;4.28;3.88;;;;;;;;;;4911604;29;20054;-75
2023/12/20 04:46:41;;;;;;;5.10;4.05;;;;;;;;;;4894267;29;20039;-76
2023/12/20 04:49:08;;;;;;;3.75;3.53;;;;;;;;;;4910153;29;20047;-76
2023/12/20 04:51:34;;;;;;;5.30;4.80;;;;;;;;;;4907864;29;20074;-76
2023/12/20 04:54:00;;;;;;;7.32;4.60;;;;;;;;;;4907183;29;20087;-75
2023/12/20 04:56:26;;;;;;;3.75;3.45;;;;;;;;;;4909855;29;20462;-77
2023/12/20 04:58:52;;;;;;;5.05;4.50;;;;;;;;;;4904709;29;20040;-77
2023/12/20 05:01:17;;;;;;;5.97;5.40;;;;;;;;;;4911262;29;20032;-77
2023/12/20 05:03:43;;;;;;;3.92;3.72;;;;;;;;;;4910224;29;20083;-77
2023/12/20 05:06:09;;;;;;;3.03;2.83;;;;;;;;;;4907910;29;20044;-76
2023/12/20 05:08:35;;;;;;;5.68;5.25;;;;;;;;;;4906489;29;20064;-77
2023/12/20 05:11:01;;;;;;;4.72;4.32;;;;;;;;;;4911275;29;20038;-76
2023/12/20 05:13:27;;;;;;;6.75;4.78;;;;;;;;;;4908806;29;20505;-76
2023/12/20 05:15:53;;;;;;;5.70;5.00;;;;;;;;;;4907135;29;20517;-74
2023/12/20 05:18:18;;;;;;;4.53;4.22;;;;;;;;;;4906790;29;20503;-76
2023/12/20 05:20:45;;;;;;;4.75;3.88;;;;;;;;;;4903577;29;20060;-77
2023/12/20 05:23:13;;;;;;;7.47;4.72;;;;;;;;;;4907474;29;20112;-76
2023/12/20 05:25:39;;;;;;;9.60;5.88;;;;;;;;;;4909230;29;20092;-76
2023/12/20 05:28:05;;;;;;;8.00;4.63;;;;;;;;;;4907732;29;20171;-75
2023/12/20 05:30:30;;;;;;;8.73;5.38;;;;;;;;;;4905676;29;20036;-74
2023/12/20 05:32:56;;;;;;;3.55;3.35;;;;;;;;;;4911245;29;20406;-77
2023/12/20 05:35:23;;;;;;;6.95;5.10;;;;;;;;;;4907690;29;20495;-75
2023/12/20 05:37:49;;;;;;;5.65;4.93;;;;;;;;;;4903270;29;20143;-76
2023/12/20 05:40:15;;;;;;;5.13;4.70;;;;;;;;;;4912446;29;20031;-76
2023/12/20 05:42:41;;;;;;;4.72;4.32;;;;;;;;;;4911127;29;20044;-77
2023/12/20 05:45:06;;;;;;;8.73;6.07;;;;;;;;;;4885853;29;20047;-77
2023/12/20 05:47:32;;;;;;;6.22;5.72;;;;;;;;;;4908459;29;20058;-77
2023/12/20 05:49:58;;;;;;;3.22;3.03;;;;;;;;;;4906437;29;20044;-77
2023/12/20 05:52:24;;;;;;;4.53;4.13;;;;;;;;;;4904875;29;20418;-76
2023/12/20 05:54:50;;;;;;;4.97;4.55;;;;;;;;;;4910716;29;20088;-76
2023/12/20 05:57:16;;;;;;;4.30;3.90;;;;;;;;;;4909958;29;20043;-76
2023/12/20 05:59:41;;;;;;;3.97;3.67;;;;;;;;;;4907247;29;20451;-79
2023/12/20 06:02:07;;;;;;;4.30;3.80;;;;;;;;;;4905338;29;20068;-77
2023/12/20 06:04:33;;;;;;;4.75;3.72;;;;;;;;;;4909664;29;20037;-77
2023/12/20 06:06:59;;;;;;;3.42;3.00;;;;;;;;;;4910058;29;20056;-76
2023/12/20 06:09:26;;;;;;;4.40;4.10;;;;;;;;;;4908206;29;20044;-77
2023/12/20 06:11:52;;;;;;;4.53;4.13;;;;;;;;;;4920038;29;20092;-77
2023/12/20 06:14:19;;;;;;;4.50;4.20;;;;;;;;;;4910864;29;20044;-77
2023/12/20 06:16:46;;;;;;;3.65;3.45;;;;;;;;;;4909106;29;20372;-76
2023/12/20 06:19:12;;;;;;;4.03;3.60;;;;;;;;;;4908603;29;20060;-77
2023/12/20 06:21:37;;;;;;;4.22;3.35;;;;;;;;;;4904626;29;20095;-77
2023/12/20 06:24:03;;;;;;;3.47;3.22;;;;;;;;;;4891049;29;20099;-76
2023/12/20 06:26:29;;;;;;;4.38;3.90;;;;;;;;;;4908087;29;20040;-77
2023/12/20 06:28:55;;;;;;;3.80;3.50;;;;;;;;;;4906375;29;20036;-77
2023/12/20 06:31:21;;;;;;;3.80;3.50;;;;;;;;;;4904345;29;20129;-78
2023/12/20 06:33:57;;;;;;;4.43;4.03;;;;;;;;;;4902926;29;20047;-77
2023/12/20 06:36:28;;;;;;;4.38;3.97;;;;;;;;;;4913317;29;20075;-77
2023/12/20 06:38:54;;;;;;;5.35;4.18;;;;;;;;;;4920039;29;20052;-77
2023/12/20 06:41:20;;;;;;;4.00;3.30;;;;;;;;;;4917536;29;20726;-76
2023/12/20 06:43:46;;;;;;;3.45;3.15;;;;;;;;;;4906925;29;20055;-76
2023/12/20 06:46:13;;;;;;;4.07;3.78;;;;;;;;;;4913511;29;20032;-77
2023/12/20 06:48:39;;;;;;;4.22;3.92;;;;;;;;;;4913574;29;20499;-77
2023/12/20 06:51:05;;;;;;;5.00;4.60;;;;;;;;;;4895824;29;20426;-77
2023/12/20 06:53:31;;;;;;;4.50;4.10;;;;;;;;;;4914758;29;20060;-77
2023/12/20 06:55:56;;;;;;;4.78;3.65;;;;;;;;;;4925607;29;20141;-76
2023/12/20 06:58:22;;;;;;;4.05;3.75;;;;;;;;;;4920289;29;20060;-76
2023/12/20 07:00:48;;;;;;;5.22;4.60;;;;;;;;;;4919102;29;20060;-76
2023/12/20 07:03:14;;;;;;;6.35;3.90;;;;;;;;;;4916495;29;20131;-75
2023/12/20 07:05:40;;;;;;;4.20;3.85;;;;;;;;;;4919793;29;20052;-76
2023/12/20 07:08:06;;;;;;;4.30;3.90;;;;;;;;;;4908063;29;20044;-76
2023/12/20 07:10:32;;;;;;;3.67;3.15;;;;;;;;;;4904067;29;20036;-77
2023/12/20 07:12:58;;;;;;;5.45;3.67;;;;;;;;;;4904240;29;20415;-76
2023/12/20 07:15:24;;;;;;;3.03;2.75;;;;;;;;;;4916153;29;20028;-76
2023/12/20 07:17:50;;;;;;;4.65;4.13;;;;;;;;;;4914779;29;20044;-77
2023/12/20 07:20:16;;;;;;;8.18;4.00;;;;;;;;;;4913618;29;20032;-76
2023/12/20 07:22:42;;;;;;;5.15;3.72;;;;;;;;;;4911575;29;20043;-75
2023/12/20 07:25:08;;;;;;;4.95;3.55;;;;;;;;;;4908582;29;20084;-78
2023/12/20 07:27:34;;;;;;;3.90;3.50;;;;;;;;;;4915348;29;20523;-77
2023/12/20 07:29:59;;;;;;;7.45;3.00;;;;;;;;;;4896451;29;20070;-76
2023/12/20 07:32:25;;;;;;;3.50;3.17;;;;;;;;;;4910614;29;20072;-78
2023/12/20 07:34:51;;;;;;;3.00;2.50;;;;;;;;;;4916436;29;20036;-79
2023/12/20 07:37:17;;;;;;;2.13;2.03;;;;;;;;;;4908224;29;20510;-78
2023/12/20 07:39:43;;;;;;;2.28;2.17;;;;;;;;;;4913793;29;20043;-77
2023/12/20 07:42:08;;;;;;;2.42;2.22;;;;;;;;;;4906816;29;20055;-76
2023/12/20 07:44:35;;;;;;;2.33;2.13;;;;;;;;;;4914287;29;20032;-76
2023/12/20 07:47:01;;;;;;;2.83;2.63;;;;;;;;;;4913139;29;20036;-76
2023/12/20 07:49:27;;;;;;;3.08;2.72;;;;;;;;;;4908693;29;20545;-76
2023/12/20 07:51:53;;;;;;;3.28;3.08;;;;;;;;;;4909732;29;20036;-75
2023/12/20 07:54:19;;;;;;;3.00;2.72;;;;;;;;;;4912405;29;20025;-76
2023/12/20 07:56:46;;;;;;;2.60;2.40;;;;;;;;;;4907336;29;20092;-76
2023/12/20 07:59:12;;;;;;;3.10;2.85;;;;;;;;;;4911697;29;20043;-77
2023/12/20 08:01:37;;;;;;;3.10;2.90;;;;;;;;;;4890649;29;20040;-77
2023/12/20 08:04:03;;;;;;;5.30;2.78;;;;;;;;;;4904678;29;20040;-76
2023/12/20 08:06:29;;;;;;;3.92;3.53;;;;;;;;;;4912165;29;20552;-77
2023/12/20 08:08:55;;;;;;;2.65;2.45;;;;;;;;;;4912714;29;20095;-77
2023/12/20 08:11:20;;;;;;;3.03;2.83;;;;;;;;;;4903164;29;20537;-76
2023/12/20 08:13:47;;;;;;;3.15;2.85;;;;;;;;;;4905288;29;20079;-76
2023/12/20 08:16:13;;;;;;;2.95;2.60;;;;;;;;;;4904473;29;20080;-77
2023/12/20 08:18:39;;;;;;;2.78;2.67;;;;;;;;;;4919534;29;20040;-79
2023/12/20 08:21:07;;;;;;;4.20;3.80;;;;;;;;;;4907450;29;20056;-79
2023/12/20 08:23:33;;;;;;;4.20;3.90;;;;;;;;;;4892152;29;20469;-80
2023/12/20 08:26:10;;;;;;;4.65;4.30;;;;;;;;;;4913980;29;20495;-80
2023/12/20 08:28:36;;;;;;;3.78;3.35;;;;;;;;;;4913941;29;20577;-79
2023/12/20 08:31:02;;;;;;;4.20;3.85;;;;;;;;;;4911788;29;20056;-78
2023/12/20 08:33:28;;;;;;;3.20;2.42;;;;;;;;;;4913899;29;20538;-80
2023/12/20 08:35:54;;;;;;;3.08;2.90;;;;;;;;;;4919006;29;20035;-82
2023/12/20 08:38:19;;;;;;;4.53;3.08;;;;;;;;;;4926567;29;20421;-80
2023/12/20 08:40:45;;;;;;;3.83;3.50;;;;;;;;;;4916087;29;20522;-81
2023/12/20 08:43:14;;;;;;;4.00;3.70;;;;;;;;;;4920639;29;20089;-79
2023/12/20 08:45:40;;;;;;;3.22;3.03;;;;;;;;;;4904517;29;20560;-78
2023/12/20 08:48:06;;;;;;;3.40;2.60;;;;;;;;;;4911507;29;20507;-77
2023/12/20 08:50:32;;;;;;;4.20;3.13;;;;;;;;;;4906198;29;20032;-77
2023/12/20 08:52:57;;;;;;;4.63;3.50;;;;;;;;;;4910536;29;20050;-78
2023/12/20 08:55:23;;;;;;;5.57;4.10;;;;;;;;;;4913094;29;20024;-77
2023/12/20 08:57:50;;;;;;;5.18;3.95;;;;;;;;;;4911749;29;20040;-77
2023/12/20 09:00:16;;;;;;;5.18;4.68;;;;;;;;;;4902278;29;20032;-77
2023/12/20 09:02:42;;;;;;;4.93;4.45;;;;;;;;;;4903025;29;20123;-77
2023/12/20 09:05:08;;;;;;;6.40;3.80;;;;;;;;;;4906213;29;20063;-75
2023/12/20 09:07:34;;;;;;;3.55;3.25;;;;;;;;;;4899164;29;20064;-75
2023/12/20 09:10:00;;;;;;;5.57;3.97;;;;;;;;;;4893204;29;20040;-77
2023/12/20 09:12:27;;;;;;;4.22;3.90;;;;;;;;;;4896417;29;20767;-76
2023/12/20 09:14:56;;;;;;;4.78;3.85;;;;;;;;;;4899604;29;20032;-76
2023/12/20 09:17:24;;;;;;;3.72;3.53;;;;;;;;;;4901684;29;20074;-77
2023/12/20 09:19:52;;;;;;;4.60;4.30;;;;;;;;;;4911655;29;20052;-76
2023/12/20 09:22:18;;;;;;;4.20;3.80;;;;;;;;;;4904910;29;20060;-77
2023/12/20 09:24:44;;;;;;;3.47;3.20;;;;;;;;;;4902641;29;20067;-78
2023/12/20 09:27:10;;;;;;;4.03;3.83;;;;;;;;;;4916845;29;20031;-76
2023/12/20 09:29:36;;;;;;;2.90;2.60;;;;;;;;;;4914734;29;20039;-79
2023/12/20 09:32:02;;;;;;;3.53;3.33;;;;;;;;;;4903893;29;20392;-77
2023/12/20 09:34:29;;;;;;;4.43;4.03;;;;;;;;;;4917932;29;20039;-78
2023/12/20 09:36:55;;;;;;;3.17;2.88;;;;;;;;;;4917813;29;20032;-77
2023/12/20 09:39:21;;;;;;;3.97;3.75;;;;;;;;;;4914146;29;20415;-75
2023/12/20 09:41:59;;;;;;;4.13;3.83;;;;;;;;;;4912885;29;20619;-76
2023/12/20 09:44:25;;;;;;;4.60;4.18;;;;;;;;;;4902992;29;20139;-76
2023/12/20 09:46:51;;;;;;;3.78;3.58;;;;;;;;;;4908235;29;20063;-77
2023/12/20 09:49:17;;;;;;;2.97;2.78;;;;;;;;;;4910539;29;20048;-77
2023/12/20 09:51:43;;;;;;;3.50;3.15;;;;;;;;;;4903822;29;20092;-79
2023/12/20 09:54:09;;;;;;;4.28;3.97;;;;;;;;;;4927235;29;20096;-76
2023/12/20 09:56:35;;;;;;;3.17;2.97;;;;;;;;;;4909741;29;20578;-76
2023/12/20 09:59:01;;;;;;;2.75;2.65;;;;;;;;;;4912358;29;20060;-75
2023/12/20 10:01:27;;;;;;;3.17;2.97;;;;;;;;;;4912014;29;20175;-75
2023/12/20 10:03:54;;;;;;;3.67;3.40;;;;;;;;;;4925357;29;20100;-76
2023/12/20 10:06:20;;;;;;;3.05;2.85;;;;;;;;;;4894561;29;20079;-75
2023/12/20 10:08:46;;;;;;;5.13;3.65;;;;;;;;;;4907700;29;20486;-74
2023/12/20 10:11:11;;;;;;;3.78;3.47;;;;;;;;;;4907263;29;20024;-76
2023/12/20 10:13:44;;;;;;;3.20;3.00;;;;;;;;;;4906612;29;20040;-77
2023/12/20 10:16:09;;;;;;;9.13;3.95;;;;;;;;;;4906068;29;20032;-77
2023/12/20 10:18:35;;;;;;;2.65;2.55;;;;;;;;;;4891118;29;20043;-77
2023/12/20 10:21:03;;;;;;;3.42;3.22;;;;;;;;;;4910343;29;20100;-78
2023/12/20 10:23:29;;;;;;;2.47;2.38;;;;;;;;;;4913437;29;20164;-78
2023/12/20 10:25:58;;;;;;;3.00;2.90;;;;;;;;;;4911242;29;20506;-76
2023/12/20 10:28:27;;;;;;;2.70;2.60;;;;;;;;;;4904800;29;20041;-79
2023/12/20 10:30:53;;;;;;;5.78;3.10;;;;;;;;;;4907254;29;20459;-78
2023/12/20 10:33:25;;;;;;;3.92;3.63;;;;;;;;;;4911365;29;20067;-78
2023/12/20 10:35:52;;;;;;;2.70;2.60;;;;;;;;;;4906676;29;20032;-78
2023/12/20 10:38:17;;;;;;;3.17;2.97;;;;;;;;;;4912310;29;20708;-75
2023/12/20 10:40:43;;;;;;;3.50;3.30;;;;;;;;;;4911560;29;20075;-76
2023/12/20 10:43:09;;;;;;;3.25;3.05;;;;;;;;;;4908170;29;20060;-76
2023/12/20 10:45:35;;;;;;;3.53;3.33;;;;;;;;;;4895913;29;20036;-77
2023/12/20 10:48:01;;;;;;;3.85;3.55;;;;;;;;;;4904865;29;20051;-79
2023/12/20 10:50:27;;;;;;;4.10;3.50;;;;;;;;;;4912328;29;20032;-77
2023/12/20 10:52:55;;;;;;;5.18;3.90;;;;;;;;;;4912535;29;20467;-72
2023/12/20 10:55:21;;;;;;;2.78;2.60;;;;;;;;;;4896630;29;20056;-79
2023/12/20 10:57:50;;;;;;;3.47;3.17;;;;;;;;;;4913527;29;20044;-81
2023/12/20 11:00:17;;;;;;;3.58;3.38;;;;;;;;;;4922754;29;20380;-74
2023/12/20 11:02:43;;;;;;;2.40;2.30;;;;;;;;;;4903187;29;20060;-75
2023/12/20 11:05:16;;;;;;;3.70;3.50;;;;;;;;;;4916451;29;20032;-77
2023/12/20 11:07:52;;;;;;;2.97;2.75;;;;;;;;;;4907332;29;20131;-75
2023/12/20 11:10:29;;;;;;;3.30;3.10;;;;;;;;;;4910435;29;20047;-78
2023/12/20 11:13:02;;;;;;;2.65;2.45;;;;;;;;;;4910953;29;20044;-79
2023/12/20 11:15:29;;;;;;;3.47;3.28;;;;;;;;;;4910641;29;20036;-77
2023/12/20 11:17:56;;;;;;;3.85;3.47;;;;;;;;;;4911531;29;20155;-77
2023/12/20 11:20:25;;;;;;;3.15;2.85;;;;;;;;;;4910964;29;20115;-75
2023/12/20 11:22:54;;;;;;;2.92;2.75;;;;;;;;;;4924911;29;20052;-77
2023/12/20 11:25:20;;;;;;;3.40;3.20;;;;;;;;;;4910906;29;20059;-77
2023/12/20 11:28:06;;;;;;;4.28;3.45;;;;;;;;;;4924059;29;20418;-78
2023/12/20 11:30:40;;;;;;;3.40;3.10;;;;;;;;;;4891481;29;20040;-78
2023/12/20 11:33:08;;;;;;;3.97;3.70;;;;;;;;;;4908120;29;20131;-77
2023/12/20 11:35:36;;;;;;;3.20;2.92;;;;;;;;;;4902180;29;20040;-77
2023/12/20 11:38:02;;;;;;;3.53;3.22;;;;;;;;;;4920527;29;20459;-77
2023/12/20 11:40:28;;;;;;;3.90;3.60;;;;;;;;;;4905923;29;20111;-77
2023/12/20 11:42:54;;;;;;;3.40;3.20;;;;;;;;;;4914966;29;20131;-79
2023/12/20 11:45:21;;;;;;;4.93;4.40;;;;;;;;;;4915242;29;20043;-78
2023/12/20 11:47:49;;;;;;;4.00;3.70;;;;;;;;;;4915392;29;20392;-79
2023/12/20 11:50:16;;;;;;;5.15;4.75;;;;;;;;;;4915514;29;20197;-79
2023/12/20 11:52:41;;;;;;;5.50;5.10;;;;;;;;;;4908479;29;20058;-79
2023/12/20 11:55:07;;;;;;;4.75;4.30;;;;;;;;;;4901171;29;20411;-77
2023/12/20 11:57:33;;;;;;;5.35;4.40;;;;;;;;;;4902851;29;20048;-79
2023/12/20 11:59:59;;;;;;;4.25;3.95;;;;;;;;;;4905809;29;20043;-79
2023/12/20 12:02:24;;;;;;;4.35;4.05;;;;;;;;;;4903199;29;20103;-79
2023/12/20 12:04:50;;;;;;;4.55;4.15;;;;;;;;;;4900366;29;20043;-78
2023/12/20 12:07:16;;;;;;;1.92;1.83;;;;;;;;;;4911953;29;20058;-79
2023/12/20 12:09:42;;;;;;;4.13;3.65;;;;;;;;;;4912193;29;20135;-80
2023/12/20 12:12:08;;;;;;;4.72;4.32;;;;;;;;;;4905279;29;20812;-79
2023/12/20 12:14:36;;;;;;;3.95;3.20;;;;;;;;;;4904507;29;20448;-79
2023/12/20 12:17:02;;;;;;;4.05;3.75;;;;;;;;;;4905437;29;20047;-79
2023/12/20 12:19:29;;;;;;;3.50;3.28;;;;;;;;;;4901339;29;20040;-77
2023/12/20 12:22:06;;;;;;;4.40;3.95;;;;;;;;;;4911585;29;20071;-77
2023/12/20 12:24:32;;;;;;;4.25;3.85;;;;;;;;;;4913710;29;20056;-77
2023/12/20 12:26:58;;;;;;;2.63;2.47;;;;;;;;;;4924147;29;20036;-77
2023/12/20 12:29:24;;;;;;;5.75;3.00;;;;;;;;;;4914370;29;20047;-77
2023/12/20 12:31:50;;;;;;;3.58;3.35;;;;;;;;;;4910628;29;20028;-79
2023/12/20 12:34:19;;;;;;;3.90;3.60;;;;;;;;;;4907130;29;20040;-80
2023/12/20 12:36:46;;;;;;;2.90;2.80;;;;;;;;;;4913324;29;20040;-80
2023/12/20 12:39:15;;;;;;;3.35;3.15;;;;;;;;;;4920582;29;20044;-78
2023/12/20 12:41:41;;;;;;;3.85;3.55;;;;;;;;;;4905123;29;20446;-79
2023/12/20 12:44:07;;;;;;;4.68;4.30;;;;;;;;;;4915225;29;20044;-79
2023/12/20 12:46:32;;;;;;;3.35;3.13;;;;;;;;;;4904087;29;20054;-79
2023/12/20 12:48:58;;;;;;;4.53;3.65;;;;;;;;;;4905475;29;20143;-78
2023/12/20 12:51:24;;;;;;;3.65;3.35;;;;;;;;;;4910320;29;20040;-78
2023/12/20 12:53:50;;;;;;;4.78;4.38;;;;;;;;;;4912164;29;20039;-79
2023/12/20 12:56:15;;;;;;;4.07;3.78;;;;;;;;;;4897535;29;20047;-80
2023/12/20 12:58:41;;;;;;;4.70;4.30;;;;;;;;;;4911416;29;20044;-77
2023/12/20 13:01:07;;;;;;;5.40;5.00;;;;;;;;;;4910040;29;20084;-78
2023/12/20 13:03:34;;;;;;;3.70;3.40;;;;;;;;;;4906179;29;20059;-78
2023/12/20 13:06:00;;;;;;;4.90;4.50;;;;;;;;;;4878581;29;20190;-77
2023/12/20 13:08:28;;;;;;;5.13;4.72;;;;;;;;;;4901947;29;20471;-77
2023/12/20 13:10:55;;;;;;;3.97;3.67;;;;;;;;;;4927413;29;20032;-77
2023/12/20 13:13:21;;;;;;;4.70;4.30;;;;;;;;;;4910009;29;20067;-79
2023/12/20 13:15:50;;;;;;;5.72;4.30;;;;;;;;;;4904287;29;20368;-75
2023/12/20 13:18:18;;;;;;;4.80;4.30;;;;;;;;;;4909458;29;20650;-79
2023/12/20 13:20:44;;;;;;;2.10;2.00;;;;;;;;;;4879607;29;20035;-78
2023/12/20 13:23:10;;;;;;;4.50;4.10;;;;;;;;;;4913946;29;20593;-76
2023/12/20 13:25:36;;;;;;;3.90;3.60;;;;;;;;;;4907596;29;20053;-79
2023/12/20 13:28:05;;;;;;;4.28;3.88;;;;;;;;;;4927075;29;20044;-76
2023/12/20 13:30:30;;;;;;;4.13;3.72;;;;;;;;;;4912491;29;20024;-77
2023/12/20 13:32:56;;;;;;;2.70;2.45;;;;;;;;;;4909252;29;20036;-77
2023/12/20 13:35:22;;;;;;;5.63;4.20;;;;;;;;;;4913786;29;20499;-76
2023/12/20 13:37:48;;;;;;;4.72;4.20;;;;;;;;;;4921910;29;20040;-75
2023/12/20 13:40:14;;;;;;;5.13;4.72;;;;;;;;;;4913352;29;20028;-74
2023/12/20 13:42:40;;;;;;;4.88;4.47;;;;;;;;;;4906793;29;20051;-75
2023/12/20 13:45:06;;;;;;;3.00;2.80;;;;;;;;;;4913604;29;20456;-75
2023/12/20 13:47:33;;;;;;;4.80;4.40;;;;;;;;;;4908149;29;20032;-76
2023/12/20 13:49:59;;;;;;;11.38;4.20;;;;;;;;;;4912479;29;20040;-76
2023/12/20 13:52:24;;;;;;;6.00;4.72;;;;;;;;;;4902314;29;20032;-76
2023/12/20 13:54:50;;;;;;;4.70;4.30;;;;;;;;;;4910815;29;20415;-74
2023/12/20 13:57:16;;;;;;;4.85;4.50;;;;;;;;;;4902185;29;20442;-76
2023/12/20 13:59:42;;;;;;;4.60;4.15;;;;;;;;;;4900121;29;20040;-75
2023/12/20 14:02:08;;;;;;;6.63;4.70;;;;;;;;;;4902064;29;20071;-75
2023/12/20 14:04:34;;;;;;;4.85;4.25;;;;;;;;;;4908149;29;20679;-78
2023/12/20 14:07:00;;;;;;;4.82;4.40;;;;;;;;;;4892288;29;20139;-77
2023/12/20 14:09:25;;;;;;;5.55;5.05;;;;;;;;;;4900322;29;20032;-77
2023/12/20 14:11:51;;;;;;;3.60;3.28;;;;;;;;;;4904719;29;20052;-74
2023/12/20 14:14:18;;;;;;;4.22;3.83;;;;;;;;;;4902137;29;20036;-76
2023/12/20 14:16:44;;;;;;;6.18;5.65;;;;;;;;;;4909529;29;20470;-78
2023/12/20 14:19:11;;;;;;;6.30;4.25;;;;;;;;;;4896405;29;20062;-78
2023/12/20 14:21:36;;;;;;;7.00;6.30;;;;;;;;;;4911752;29;20032;-78
2023/12/20 14:24:03;;;;;;;5.28;4.70;;;;;;;;;;4907096;29;20047;-77
2023/12/20 14:26:30;;;;;;;6.45;4.40;;;;;;;;;;4910703;29;20036;-77
2023/12/20 14:28:55;;;;;;;5.60;3.60;;;;;;;;;;4927630;29;20044;-80
2023/12/20 14:31:23;;;;;;;4.72;4.25;;;;;;;;;;4918592;29;20028;-79
2023/12/20 14:33:50;;;;;;;4.13;3.75;;;;;;;;;;4905966;29;20040;-77
2023/12/20 14:36:17;;;;;;;6.05;4.72;;;;;;;;;;4899549;29;20546;-79
2023/12/20 14:38:43;;;;;;;5.30;4.80;;;;;;;;;;4900494;29;20044;-77